Pavlodar, Kazakhstan

11:51 AM ALMT on January 31, 2015 (GMT +0600)
Pavlodar | Change Station
CLOSE
Current Station
Airport
Location: Pavlodar,
Elevation: 410 ft
Nearby Weather Stations

Elev 410 ft 52.19 °N, 77.07 °E | Updated 21 minutes ago

Clear
Clear
-6 °F
Feels Like -24 °F
N
11
Wind Variable Wind from East

Today
High -- | Low -- °F
--% Chance of Precip.
Yesterday
High -- | Low -- °F
Precip. -- in
8:34 AM 5:36 PM
Waxing Gibbous, 87% visible
Pressure 30.51 in
Visibility -9999.0 miles
Clouds
Windchill -24 °F
Dew Point -13 °F
Humidity 71%
Rainfall 0.00 in
Snow Depth Not available.
UV Not available.
Pollen Not available.
Air Quality Not available.
Flu Activity Not available.
METAR UASP 310530Z 10005MPS CAVOK M21/M25 Q1033 R03/0///60 NOSIG RMK QFE764/1019

More Conditions Fewer Conditions

Pressure 30.51 in
Visibility -9999.0 miles
Clouds
Windchill -24 °F
Dew Point -13 °F
Humidity 71%
Rainfall 0.00 in
Snow Depth Not available.
UV Not available.
Pollen Not available.
Air Quality Not available.
Flu Activity Not available.
METAR UASP 310530Z 10005MPS CAVOK M21/M25 Q1033 R03/0///60 NOSIG RMK QFE764/1019

More Conditions Fewer Conditions

10-Day Weather Forecast

Almanac

Astronomy

Jan. 31, 2015 Rise Set
Actual Time
Civil Twilight
Nautical Twilight
Astronomical Twilight
Moon
Length of Visible Light
Length of Day
Tomorrow will be .
, % of the Moon is Illuminated

Today's Extremes

Country Highs Country Lows

Community

WunderPhotos

Upload Photos

1,792,005 photos uploaded!

WunderBlogs® & News

Nearby

Air Quality

  Air Quality AQ Index Pollutant
Not available.

Snow Depth

Station Depth Elevation

Earthquake Activity

City Distance Mag. Time & Date
Minimum magnitude displayed is 2.5.

Coastal Water Temperatures

Place Temperature

Nearby Weather Stations